Time;durP1;ratioP1;P1;durP2;ratioP2;P2;SDS_P1;SDS_P2;PMS_P1;PMS_P2;Temp;Humidity;BMP_temperature;BMP_pressure;BME280_temperature;BME280_humidity;BME280_pressure;Samples;Min_cycle;Max_cycle;Signal;HPM_P1;HPM_P2
2022/01/25 00:08:24;;;;;;;67.82;38.58;;;5.60;99.90;;;;;;5028471;28;20056;-62
2022/01/25 00:10:13;;;;;;;59.88;37.90;;;5.60;99.90;;;;;;5020606;28;20053;-62
2022/01/25 00:26:40;;;;;;;63.28;38.65;;;5.50;99.90;;;;;;5017382;28;20078;-62
2022/01/25 00:29:13;;;;;;;58.17;38.53;;;5.50;99.90;;;;;;5026130;28;20102;-62
2022/01/25 00:31:41;;;;;;;63.13;40.95;;;5.50;99.90;;;;;;5030369;28;20417;-62
2022/01/25 00:34:07;;;;;;;57.38;37.08;;;5.50;99.90;;;;;;5009792;28;20100;-62
2022/01/25 00:36:34;;;;;;;68.80;40.83;;;5.40;99.90;;;;;;5012755;28;20539;-62
2022/01/25 00:39:00;;;;;;;58.17;35.33;;;5.40;99.90;;;;;;5028986;28;20037;-62
2022/01/25 00:41:26;;;;;;;65.28;39.30;;;5.50;99.90;;;;;;5029021;28;20045;-62
2022/01/25 00:43:52;;;;;;;63.60;38.53;;;5.50;99.90;;;;;;5021181;28;20033;-62
2022/01/25 00:46:21;;;;;;;69.70;40.22;;;5.40;99.90;;;;;;5012917;28;20054;-62
2022/01/25 00:48:50;;;;;;;63.55;38.78;;;5.50;99.90;;;;;;5009151;28;20046;-62
2022/01/25 00:54:13;;;;;;;58.13;37.33;;;5.40;99.90;;;;;;5009455;28;20050;-62
2022/01/25 00:56:49;;;;;;;65.38;39.42;;;5.50;99.90;;;;;;5009591;28;20049;-62
2022/01/25 00:59:23;;;;;;;65.35;38.35;;;5.40;99.90;;;;;;5020952;28;20206;-62
2022/01/25 01:01:52;;;;;;;63.50;38.33;;;5.40;99.90;;;;;;5029349;28;20073;-62
2022/01/25 01:04:18;;;;;;;70.13;40.83;;;5.40;99.90;;;;;;5026857;28;20099;-62
2022/01/25 01:06:45;;;;;;;64.75;38.58;;;5.50;99.90;;;;;;5011297;28;20037;-62
2022/01/25 01:09:12;;;;;;;60.10;36.63;;;5.40;99.90;;;;;;5009304;28;20050;-62
2022/01/25 01:12:07;;;;;;;64.38;39.53;;;5.50;99.90;;;;;;5008004;28;20489;-62
2022/01/25 01:17:11;;;;;;;72.65;42.35;;;5.40;99.90;;;;;;5029359;28;20095;-62
2022/01/25 01:31:01;;;;;;;68.60;41.55;;;5.50;99.90;;;;;;5009341;28;20128;-62
2022/01/25 01:39:25;;;;;;;65.13;40.25;;;5.40;99.90;;;;;;4937218;28;20063;-62
2022/01/25 01:44:38;;;;;;;63.30;38.88;;;5.40;99.90;;;;;;5026671;28;20049;-61
2022/01/25 01:47:11;;;;;;;71.07;39.80;;;5.40;99.90;;;;;;5027354;28;20045;-61
2022/01/25 01:49:42;;;;;;;71.57;42.45;;;5.40;99.90;;;;;;5026523;28;20058;-61
2022/01/25 01:52:10;;;;;;;62.28;38.72;;;5.40;99.90;;;;;;5027108;28;20560;-61
2022/01/25 01:54:36;;;;;;;69.68;40.78;;;5.50;99.90;;;;;;5011280;28;20042;-61
2022/01/25 01:57:02;;;;;;;65.43;39.53;;;5.40;99.90;;;;;;5025002;28;20591;-61
2022/01/25 01:59:28;;;;;;;71.60;41.65;;;5.40;99.90;;;;;;5015879;28;20079;-61
2022/01/25 02:01:53;;;;;;;71.35;42.60;;;5.40;99.90;;;;;;5022930;28;20080;-61
2022/01/25 02:04:20;;;;;;;65.68;40.67;;;5.40;99.90;;;;;;5029139;28;20056;-61
2022/01/25 02:06:46;;;;;;;67.97;41.25;;;5.40;99.90;;;;;;5024264;28;20120;-61
2022/01/25 02:09:12;;;;;;;65.40;39.20;;;5.40;99.90;;;;;;5023219;28;20117;-61
2022/01/25 02:11:38;;;;;;;64.07;41.05;;;5.40;99.90;;;;;;5009877;28;20045;-61
2022/01/25 02:14:08;;;;;;;66.07;40.63;;;5.40;99.90;;;;;;5011093;28;20041;-62
2022/01/25 02:24:32;;;;;;;69.60;42.22;;;5.40;99.90;;;;;;5028091;28;20059;-62
2022/01/25 02:26:59;;;;;;;64.43;39.65;;;5.30;99.90;;;;;;5026481;28;20083;-61
2022/01/25 02:29:25;;;;;;;63.47;39.63;;;5.40;99.90;;;;;;5026852;28;20437;-61
2022/01/25 02:31:52;;;;;;;70.20;40.20;;;5.40;99.90;;;;;;5007034;28;20100;-61
2022/01/25 02:34:18;;;;;;;68.18;41.97;;;5.40;99.90;;;;;;5014885;28;20046;-61
2022/01/25 02:36:43;;;;;;;77.97;44.03;;;5.40;99.90;;;;;;5027970;28;20531;-61
2022/01/25 02:39:09;;;;;;;71.32;43.25;;;5.30;99.90;;;;;;5008808;28;20053;-62
2022/01/25 02:41:35;;;;;;;66.95;41.22;;;5.40;99.90;;;;;;5018064;28;20053;-63
2022/01/25 02:44:04;;;;;;;68.80;41.92;;;5.30;99.90;;;;;;5026292;28;20065;-63
2022/01/25 02:48:58;;;;;;;69.10;42.15;;;5.30;99.90;;;;;;5022751;28;20042;-63
2022/01/25 02:51:27;;;;;;;76.38;44.28;;;5.40;99.90;;;;;;5020231;28;20235;-63
2022/01/25 02:53:54;;;;;;;67.32;42.22;;;5.40;99.90;;;;;;5019492;28;20053;-63
2022/01/25 02:56:20;;;;;;;66.82;39.60;;;5.30;99.90;;;;;;5004532;28;20048;-63
2022/01/25 02:58:46;;;;;;;65.50;40.30;;;5.40;99.90;;;;;;5006725;28;20049;-63
2022/01/25 03:01:13;;;;;;;65.70;41.38;;;5.40;99.90;;;;;;5018390;28;20046;-63
2022/01/25 03:03:39;;;;;;;72.05;43.15;;;5.40;99.90;;;;;;5020982;28;20060;-63
2022/01/25 03:06:05;;;;;;;62.13;40.58;;;5.40;99.90;;;;;;5009183;28;20045;-63
2022/01/25 03:08:31;;;;;;;70.00;41.35;;;5.40;99.90;;;;;;5025450;28;20076;-63
2022/01/25 03:10:57;;;;;;;65.65;40.58;;;5.40;99.90;;;;;;5016228;28;20489;-62
2022/01/25 03:13:30;;;;;;;65.25;38.45;;;5.40;99.90;;;;;;5028025;28;20054;-63
2022/01/25 03:16:01;;;;;;;66.00;41.08;;;5.40;99.90;;;;;;5026373;28;20092;-63
2022/01/25 03:21:15;;;;;;;66.88;40.20;;;5.30;99.90;;;;;;5012852;28;20042;-63
2022/01/25 03:23:42;;;;;;;69.70;42.30;;;5.30;99.90;;;;;;5026569;28;20045;-63
2022/01/25 03:26:07;;;;;;;69.22;41.28;;;5.30;99.90;;;;;;5018680;28;20644;-63
2022/01/25 03:28:33;;;;;;;66.80;41.67;;;5.30;99.90;;;;;;5017248;28;20087;-63
2022/01/25 03:30:59;;;;;;;66.85;40.97;;;5.30;99.90;;;;;;5026114;28;20099;-63
2022/01/25 03:33:25;;;;;;;60.90;37.60;;;5.30;99.90;;;;;;5022487;28;20062;-63
2022/01/25 03:35:50;;;;;;;68.68;39.85;;;5.30;99.90;;;;;;5008254;28;20041;-63
2022/01/25 03:38:16;;;;;;;66.57;41.63;;;5.30;99.90;;;;;;5029797;28;20049;-62
2022/01/25 03:40:42;;;;;;;68.93;42.55;;;5.40;99.90;;;;;;5022907;28;20129;-63
2022/01/25 03:43:09;;;;;;;74.78;42.05;;;5.30;99.90;;;;;;5015941;28;20049;-63
2022/01/25 03:45:37;;;;;;;70.57;42.53;;;5.30;99.90;;;;;;5011580;28;20501;-63
2022/01/25 03:50:42;;;;;;;67.20;41.42;;;5.30;99.90;;;;;;5014898;28;20545;-63
2022/01/25 03:53:10;;;;;;;66.72;42.40;;;5.40;99.90;;;;;;5026389;28;20041;-63
2022/01/25 03:55:36;;;;;;;77.05;45.28;;;5.30;99.90;;;;;;5021248;28;20042;-63
2022/01/25 03:58:02;;;;;;;68.18;42.28;;;5.30;99.90;;;;;;5015724;28;20069;-63
2022/01/25 04:00:28;;;;;;;68.60;41.42;;;5.40;99.90;;;;;;5009636;28;20058;-62
2022/01/25 04:03:40;;;;;;;74.03;42.63;;;5.30;99.90;;;;;;5017895;28;20565;-62
2022/01/25 04:08:09;;;;;;;63.38;39.78;;;5.30;99.90;;;;;;5017188;28;20136;-63
2022/01/25 04:10:35;;;;;;;66.38;39.60;;;5.30;99.90;;;;;;5022893;28;20072;-63
2022/01/25 04:13:00;;;;;;;67.07;40.88;;;5.30;99.90;;;;;;5029373;28;20628;-62
2022/01/25 04:15:26;;;;;;;68.47;40.70;;;5.30;99.90;;;;;;5020282;28;20401;-63
2022/01/25 04:18:03;;;;;;;73.32;44.35;;;5.30;99.90;;;;;;5024590;28;20102;-63
2022/01/25 04:20:33;;;;;;;67.53;41.00;;;5.30;99.90;;;;;;5024237;28;20068;-63
2022/01/25 04:25:43;;;;;;;67.28;42.10;;;5.30;99.90;;;;;;5011482;28;20057;-63
2022/01/25 04:28:09;;;;;;;67.57;40.92;;;5.30;99.90;;;;;;5026486;28;20061;-63
2022/01/25 04:30:34;;;;;;;66.40;43.17;;;5.30;99.90;;;;;;5016276;28;20099;-63
2022/01/25 04:33:04;;;;;;;73.32;42.63;;;5.30;99.90;;;;;;5004098;28;20061;-63
2022/01/25 04:49:21;;;;;;;69.00;41.47;;;5.30;99.90;;;;;;5027446;28;20064;-62
2022/01/25 04:52:04;;;;;;;61.85;39.05;;;5.30;99.90;;;;;;5029890;28;20041;-63
2022/01/25 04:59:39;;;;;;;69.53;41.50;;;5.40;99.90;;;;;;5018264;28;20391;-63
2022/01/25 05:02:17;;;;;;;71.20;42.42;;;5.40;99.90;;;;;;5016584;28;20569;-63
2022/01/25 05:04:50;;;;;;;66.82;39.50;;;5.30;99.90;;;;;;5025939;28;20077;-63
2022/01/25 05:07:36;;;;;;;65.40;38.25;;;5.40;99.90;;;;;;5018513;28;20536;-63
2022/01/25 05:10:03;;;;;;;65.20;40.15;;;5.30;99.90;;;;;;5014414;28;20113;-63
2022/01/25 05:12:46;;;;;;;69.55;42.20;;;5.40;99.90;;;;;;5022966;28;20045;-63
2022/01/25 05:15:25;;;;;;;71.68;43.30;;;5.30;99.90;;;;;;5029240;28;20049;-63
2022/01/25 05:18:10;;;;;;;72.22;42.35;;;5.30;99.90;;;;;;5022238;28;20041;-63
2022/01/25 05:23:20;;;;;;;73.43;42.65;;;5.30;99.90;;;;;;5014649;28;20064;-63
2022/01/25 05:25:45;;;;;;;77.38;42.53;;;5.30;99.90;;;;;;5022228;28;20034;-63
2022/01/25 05:28:11;;;;;;;72.38;42.80;;;5.30;99.90;;;;;;5024581;28;20568;-63
2022/01/25 05:30:36;;;;;;;71.35;44.65;;;5.30;99.90;;;;;;5027811;28;20558;-63
2022/01/25 05:33:02;;;;;;;65.95;39.72;;;5.30;99.90;;;;;;5021342;28;20058;-63
2022/01/25 05:35:28;;;;;;;71.00;40.95;;;5.30;99.90;;;;;;5013220;28;20393;-63
2022/01/25 05:37:53;;;;;;;66.28;41.60;;;5.30;99.90;;;;;;5024198;28;20037;-63
2022/01/25 05:40:28;;;;;;;67.88;40.03;;;5.30;99.90;;;;;;5021955;28;20081;-63
2022/01/25 05:46:33;;;;;;;67.78;39.20;;;5.30;99.90;;;;;;5014683;28;20045;-63
2022/01/25 05:48:29;;;;;;;71.07;41.28;;;5.30;99.90;;;;;;5001486;28;20049;-63
2022/01/25 05:50:56;;;;;;;72.32;43.03;;;5.30;99.90;;;;;;5028255;28;20075;-63
2022/01/25 05:53:22;;;;;;;66.18;40.90;;;5.30;99.90;;;;;;5017304;28;20053;-63
2022/01/25 05:55:48;;;;;;;74.22;44.13;;;5.30;99.90;;;;;;5009299;28;20067;-63
2022/01/25 05:58:14;;;;;;;71.00;43.17;;;5.30;99.90;;;;;;5025252;28;20139;-63
2022/01/25 06:00:40;;;;;;;66.25;42.58;;;5.30;99.90;;;;;;5027729;28;20041;-63
2022/01/25 06:03:07;;;;;;;69.93;42.60;;;5.30;99.90;;;;;;5020637;28;20048;-63
2022/01/25 06:05:36;;;;;;;69.63;41.70;;;5.30;99.90;;;;;;5023352;28;20071;-63
2022/01/25 06:08:03;;;;;;;70.93;41.83;;;5.30;99.90;;;;;;5007139;28;20053;-63
2022/01/25 06:10:29;;;;;;;68.75;42.03;;;5.40;99.90;;;;;;5020972;28;20050;-63
2022/01/25 06:12:55;;;;;;;68.20;41.72;;;5.30;99.90;;;;;;5025216;28;20179;-63
2022/01/25 06:15:21;;;;;;;71.55;44.08;;;5.30;99.90;;;;;;5005408;28;20563;-63
2022/01/25 06:17:47;;;;;;;70.53;42.45;;;5.30;99.90;;;;;;5013306;28;20493;-63
2022/01/25 06:20:12;;;;;;;67.70;41.65;;;5.30;99.90;;;;;;5012429;28;20677;-63
2022/01/25 06:22:38;;;;;;;69.30;42.28;;;5.30;99.90;;;;;;5010315;28;20482;-63
2022/01/25 06:25:05;;;;;;;66.47;42.28;;;5.30;99.90;;;;;;5022670;28;20398;-63
2022/01/25 06:27:30;;;;;;;70.80;42.30;;;5.30;99.90;;;;;;5023166;28;20058;-63
2022/01/25 06:29:56;;;;;;;70.00;40.15;;;5.30;99.90;;;;;;5023582;28;20440;-63
2022/01/25 06:32:22;;;;;;;67.97;40.55;;;5.30;99.90;;;;;;5022859;28;20057;-63
2022/01/25 06:34:48;;;;;;;72.50;43.30;;;5.30;99.90;;;;;;5016729;28;20037;-63
2022/01/25 06:37:14;;;;;;;68.15;42.58;;;5.30;99.90;;;;;;5008462;28;20477;-62
2022/01/25 06:39:40;;;;;;;74.05;42.58;;;5.30;99.90;;;;;;5012410;28;20077;-63
2022/01/25 06:42:07;;;;;;;67.32;40.13;;;5.30;99.90;;;;;;5011786;28;20076;-63
2022/01/25 06:44:34;;;;;;;63.95;40.33;;;5.40;99.90;;;;;;5028255;28;20418;-63
2022/01/25 06:47:00;;;;;;;71.15;40.50;;;5.40;99.90;;;;;;5027079;28;20515;-63
2022/01/25 06:49:26;;;;;;;73.40;43.15;;;5.40;99.90;;;;;;5024422;28;20033;-63
2022/01/25 06:51:52;;;;;;;73.05;43.33;;;5.40;99.90;;;;;;5027643;28;20042;-63
2022/01/25 06:54:17;;;;;;;66.10;40.70;;;5.40;99.90;;;;;;5027159;28;20053;-63
2022/01/25 06:56:43;;;;;;;72.60;43.00;;;5.40;99.90;;;;;;5023063;28;20049;-63
2022/01/25 06:59:09;;;;;;;73.82;41.75;;;5.30;99.90;;;;;;5019172;28;20056;-63
2022/01/25 07:01:34;;;;;;;69.90;41.80;;;5.40;99.90;;;;;;5011799;28;20473;-63
2022/01/25 07:04:00;;;;;;;64.55;40.58;;;5.40;99.90;;;;;;5005499;28;20045;-63
2022/01/25 07:06:27;;;;;;;61.88;39.65;;;5.30;99.90;;;;;;5019586;28;20042;-62
2022/01/25 07:08:53;;;;;;;67.78;41.60;;;5.40;99.90;;;;;;5027387;28;20080;-62
2022/01/25 07:11:19;;;;;;;65.18;39.58;;;5.40;99.90;;;;;;5030680;28;20478;-63
2022/01/25 07:13:46;;;;;;;65.78;41.45;;;5.30;99.90;;;;;;5019625;28;20085;-63
2022/01/25 07:16:11;;;;;;;73.03;42.83;;;5.40;99.90;;;;;;5026385;28;20057;-63
2022/01/25 07:18:37;;;;;;;63.28;39.28;;;5.30;99.90;;;;;;5024580;28;20194;-63
2022/01/25 07:21:03;;;;;;;69.18;41.05;;;5.30;99.90;;;;;;5018643;28;20041;-63
2022/01/25 07:23:28;;;;;;;65.90;40.25;;;5.30;99.90;;;;;;5025158;28;20037;-63
2022/01/25 07:25:54;;;;;;;72.38;42.33;;;5.30;99.90;;;;;;5030328;28;20564;-63
2022/01/25 07:28:20;;;;;;;63.05;39.20;;;5.40;99.90;;;;;;5017415;28;20057;-63
2022/01/25 07:30:45;;;;;;;73.93;43.00;;;5.30;99.90;;;;;;5011940;28;20065;-63
2022/01/25 07:33:11;;;;;;;68.43;42.33;;;5.40;99.90;;;;;;4996020;28;20112;-63
2022/01/25 07:35:37;;;;;;;73.50;43.58;;;5.40;99.90;;;;;;5024724;28;20056;-63
2022/01/25 07:38:03;;;;;;;68.93;42.30;;;5.40;99.90;;;;;;5015800;28;20096;-63
2022/01/25 07:40:30;;;;;;;69.32;42.15;;;5.30;99.90;;;;;;5028741;28;20509;-63
2022/01/25 07:42:56;;;;;;;65.40;40.70;;;5.30;99.90;;;;;;5025453;28;20053;-63
2022/01/25 07:45:22;;;;;;;66.88;42.50;;;5.30;99.90;;;;;;5027344;28;20046;-63
2022/01/25 07:47:48;;;;;;;65.93;40.38;;;5.30;99.90;;;;;;5025863;28;20050;-62
2022/01/25 07:50:14;;;;;;;69.38;42.03;;;5.20;99.90;;;;;;5017282;28;20038;-63
2022/01/25 07:52:40;;;;;;;78.40;42.80;;;5.30;99.90;;;;;;5014162;28;20478;-63
2022/01/25 07:55:06;;;;;;;72.63;42.92;;;5.30;99.90;;;;;;5023072;28;20121;-64
2022/01/25 07:57:32;;;;;;;74.35;42.53;;;5.30;99.90;;;;;;5017263;28;20132;-63
2022/01/25 07:59:58;;;;;;;71.07;43.78;;;5.30;99.90;;;;;;5028854;28;20121;-64
2022/01/25 08:02:24;;;;;;;75.28;42.20;;;5.30;99.90;;;;;;5019263;28;20050;-64
2022/01/25 08:04:50;;;;;;;66.75;41.53;;;5.30;99.90;;;;;;5019216;28;20389;-64
2022/01/25 08:07:16;;;;;;;68.30;41.58;;;5.30;99.90;;;;;;5005052;28;20397;-64
2022/01/25 08:09:42;;;;;;;68.25;42.20;;;5.30;99.90;;;;;;5020462;28;20044;-64
2022/01/25 08:12:09;;;;;;;68.65;41.97;;;5.30;99.90;;;;;;5001432;28;20046;-64
2022/01/25 08:14:34;;;;;;;69.65;41.58;;;5.30;99.90;;;;;;5020675;28;20050;-64
2022/01/25 08:17:00;;;;;;;71.65;41.67;;;5.30;99.90;;;;;;5015107;28;20053;-64
2022/01/25 08:19:25;;;;;;;67.03;40.88;;;5.40;99.90;;;;;;5026416;28;20041;-64
2022/01/25 08:21:51;;;;;;;70.85;43.05;;;5.30;99.90;;;;;;5020539;28;20069;-64
2022/01/25 08:24:18;;;;;;;69.88;43.70;;;5.40;99.90;;;;;;5020834;28;20551;-64
2022/01/25 08:26:44;;;;;;;68.45;41.85;;;5.30;99.90;;;;;;5026173;28;20037;-64
2022/01/25 08:29:10;;;;;;;71.57;43.28;;;5.40;99.90;;;;;;5017146;28;20152;-64
2022/01/25 08:31:37;;;;;;;68.25;41.75;;;5.40;99.90;;;;;;5022072;28;20506;-64
2022/01/25 08:34:03;;;;;;;81.22;43.55;;;5.40;99.90;;;;;;5025533;28;20072;-63
2022/01/25 08:36:29;;;;;;;70.70;42.63;;;5.40;99.90;;;;;;5020798;28;20512;-62
2022/01/25 08:38:54;;;;;;;72.13;45.03;;;5.40;99.90;;;;;;5025095;28;20447;-62
2022/01/25 08:41:20;;;;;;;72.80;43.25;;;5.40;99.90;;;;;;5024634;28;20037;-62
2022/01/25 08:43:46;;;;;;;73.13;42.42;;;5.40;99.90;;;;;;5027072;28;21023;-62
2022/01/25 08:46:12;;;;;;;81.35;46.13;;;5.40;99.90;;;;;;5024390;28;20383;-62
2022/01/25 08:48:38;;;;;;;66.07;42.28;;;5.40;99.90;;;;;;5017973;28;20070;-62
2022/01/25 08:51:04;;;;;;;74.03;45.25;;;5.40;99.90;;;;;;5018475;28;20076;-63
2022/01/25 08:53:30;;;;;;;73.35;41.95;;;5.40;99.90;;;;;;5026684;28;20037;-63
2022/01/25 08:55:56;;;;;;;72.28;43.45;;;5.40;99.90;;;;;;5017955;28;20053;-63
2022/01/25 08:58:21;;;;;;;72.95;42.00;;;5.40;99.90;;;;;;5012141;28;20393;-63
2022/01/25 09:00:47;;;;;;;75.32;43.13;;;5.40;99.90;;;;;;5025402;28;20041;-63
2022/01/25 09:03:13;;;;;;;73.45;44.25;;;5.30;99.90;;;;;;5028077;28;20079;-63
2022/01/25 09:05:38;;;;;;;73.90;42.40;;;5.40;99.90;;;;;;5018015;28;20037;-63
2022/01/25 09:08:05;;;;;;;70.32;40.88;;;5.40;99.90;;;;;;5019495;28;20099;-63
2022/01/25 09:10:32;;;;;;;72.40;44.95;;;5.40;99.90;;;;;;5029048;28;20042;-63
2022/01/25 09:12:57;;;;;;;73.15;43.63;;;5.40;99.90;;;;;;5002082;28;20084;-63
2022/01/25 09:15:23;;;;;;;66.40;42.47;;;5.40;99.90;;;;;;5021998;28;20073;-63
2022/01/25 09:17:49;;;;;;;73.43;44.00;;;5.40;99.90;;;;;;5023697;28;20492;-63
2022/01/25 09:20:15;;;;;;;66.63;41.92;;;5.40;99.90;;;;;;5026745;28;20572;-63
2022/01/25 09:22:41;;;;;;;70.03;43.45;;;5.50;99.90;;;;;;5019262;28;20053;-63
2022/01/25 09:25:07;;;;;;;70.88;43.90;;;5.40;99.90;;;;;;5023723;28;20492;-63
2022/01/25 09:27:32;;;;;;;66.53;40.92;;;5.50;99.90;;;;;;5017238;28;20054;-63
2022/01/25 09:29:58;;;;;;;67.75;41.38;;;5.50;99.90;;;;;;5019026;28;20053;-63
2022/01/25 09:32:23;;;;;;;70.55;41.88;;;5.50;99.90;;;;;;5022991;28;20091;-63
2022/01/25 09:34:49;;;;;;;67.20;42.13;;;5.40;99.90;;;;;;5027759;28;20049;-63
2022/01/25 09:37:15;;;;;;;71.70;46.10;;;5.40;99.90;;;;;;5016590;28;20056;-63
2022/01/25 09:39:41;;;;;;;64.70;41.45;;;5.50;99.90;;;;;;5026476;28;20045;-63
2022/01/25 09:42:11;;;;;;;75.40;42.20;;;5.40;99.90;;;;;;5017433;28;20057;-63
2022/01/25 09:44:39;;;;;;;68.93;42.70;;;5.40;99.90;;;;;;5022800;28;20556;-63
2022/01/25 09:47:06;;;;;;;64.07;41.50;;;5.40;99.90;;;;;;5022037;28;20455;-63
2022/01/25 09:49:33;;;;;;;67.18;39.58;;;5.30;99.90;;;;;;5023715;28;20752;-63
2022/01/25 09:52:04;;;;;;;67.38;41.17;;;5.40;99.90;;;;;;5016739;28;20049;-63
2022/01/25 09:54:31;;;;;;;65.93;40.28;;;5.30;99.90;;;;;;5022629;28;20057;-63
2022/01/25 09:56:57;;;;;;;66.75;40.30;;;5.30;99.90;;;;;;5023018;28;20060;-63
2022/01/25 09:59:26;;;;;;;72.88;44.08;;;5.30;99.90;;;;;;5027352;28;20041;-63
2022/01/25 10:01:52;;;;;;;70.88;40.78;;;5.30;99.90;;;;;;5028614;28;20390;-63
2022/01/25 10:04:34;;;;;;;66.18;41.20;;;5.30;99.90;;;;;;5011909;28;20041;-63
2022/01/25 10:07:00;;;;;;;67.03;40.75;;;5.30;99.90;;;;;;5024793;28;20064;-63
2022/01/25 10:09:28;;;;;;;70.47;42.20;;;5.30;99.90;;;;;;5020792;28;20393;-63
2022/01/25 10:11:54;;;;;;;68.22;40.53;;;5.30;99.90;;;;;;4996973;28;20056;-63
2022/01/25 10:14:23;;;;;;;70.00;40.67;;;5.30;99.90;;;;;;5028195;28;20049;-62
2022/01/25 10:16:55;;;;;;;73.38;42.97;;;5.30;99.90;;;;;;5013259;28;20061;-62
2022/01/25 10:19:25;;;;;;;73.60;41.63;;;5.40;99.90;;;;;;5021466;28;20048;-62
2022/01/25 10:21:51;;;;;;;71.93;40.78;;;5.40;99.90;;;;;;5028118;28;20049;-63
2022/01/25 10:24:24;;;;;;;68.43;40.63;;;5.30;99.90;;;;;;5010282;28;20050;-62
2022/01/25 10:26:53;;;;;;;75.88;43.25;;;5.40;99.90;;;;;;5023094;28;20038;-61
2022/01/25 10:29:23;;;;;;;67.22;40.85;;;5.30;99.90;;;;;;5025031;28;20148;-62
2022/01/25 10:31:52;;;;;;;74.03;44.60;;;5.40;99.90;;;;;;5020927;28;20508;-63
2022/01/25 10:34:25;;;;;;;80.47;44.90;;;5.30;99.90;;;;;;5010460;28;20053;-63
2022/01/25 10:36:53;;;;;;;67.50;40.00;;;5.30;99.90;;;;;;5027094;28;20058;-63
2022/01/25 10:39:31;;;;;;;67.88;41.13;;;5.40;99.90;;;;;;5024186;28;20387;-63
2022/01/25 10:42:23;;;;;;;74.65;41.25;;;5.40;99.90;;;;;;5019397;28;20048;-63
2022/01/25 10:44:58;;;;;;;69.38;41.38;;;5.30;99.90;;;;;;5020374;28;20048;-63
2022/01/25 10:47:45;;;;;;;73.55;44.47;;;5.30;99.90;;;;;;5025581;28;20050;-63
2022/01/25 10:50:15;;;;;;;71.65;43.17;;;5.30;99.90;;;;;;5025975;28;20056;-63
2022/01/25 10:52:41;;;;;;;78.20;43.70;;;5.30;99.90;;;;;;5015590;28;20042;-63
2022/01/25 10:55:08;;;;;;;69.10;41.58;;;5.30;99.90;;;;;;5006251;28;20054;-63
2022/01/25 10:57:34;;;;;;;74.68;43.95;;;5.30;99.90;;;;;;5017812;28;20041;-62
2022/01/25 11:00:06;;;;;;;77.85;46.30;;;5.30;99.90;;;;;;5030170;28;20053;-62
2022/01/25 11:02:32;;;;;;;76.22;44.83;;;5.30;99.90;;;;;;5023104;28;20041;-62
2022/01/25 11:05:09;;;;;;;73.88;42.45;;;5.30;99.90;;;;;;5025878;28;20401;-62
2022/01/25 11:07:44;;;;;;;72.85;42.22;;;5.30;99.90;;;;;;5031351;28;20575;-62
2022/01/25 11:10:14;;;;;;;72.03;43.15;;;5.30;99.90;;;;;;5018800;28;20512;-62
2022/01/25 11:12:47;;;;;;;75.78;43.85;;;5.30;99.90;;;;;;5025805;28;20049;-61
2022/01/25 11:15:12;;;;;;;73.35;42.45;;;5.40;99.90;;;;;;5019625;28;20089;-62
2022/01/25 11:17:40;;;;;;;75.30;43.78;;;5.40;99.90;;;;;;5010038;28;20072;-62
2022/01/25 11:20:06;;;;;;;71.65;43.47;;;5.30;99.90;;;;;;5024487;28;20168;-62
2022/01/25 11:22:32;;;;;;;77.30;44.25;;;5.30;99.90;;;;;;5029894;28;20124;-62
2022/01/25 11:25:00;;;;;;;74.82;42.70;;;5.30;99.90;;;;;;5027416;28;20085;-62
2022/01/25 11:27:28;;;;;;;77.50;44.70;;;5.30;99.90;;;;;;5027794;28;20067;-62
2022/01/25 11:29:57;;;;;;;78.07;43.42;;;5.30;99.90;;;;;;5022156;28;20098;-62
2022/01/25 11:32:26;;;;;;;84.00;45.03;;;5.30;99.90;;;;;;5014449;28;20052;-62
2022/01/25 11:34:53;;;;;;;71.25;41.60;;;5.30;99.90;;;;;;5024569;28;20056;-62
2022/01/25 11:37:19;;;;;;;89.45;47.47;;;5.30;99.90;;;;;;5030277;28;20049;-62
2022/01/25 11:39:49;;;;;;;83.28;47.65;;;5.30;99.90;;;;;;5034184;28;20048;-62
2022/01/25 11:42:20;;;;;;;80.95;45.97;;;5.30;99.90;;;;;;5041565;28;20128;-61
2022/01/25 11:44:49;;;;;;;79.75;45.58;;;5.30;99.90;;;;;;5019601;28;20541;-61
2022/01/25 11:47:16;;;;;;;81.45;44.55;;;5.30;99.90;;;;;;5012959;28;20056;-62
2022/01/25 11:49:51;;;;;;;75.50;44.72;;;5.30;99.90;;;;;;5029078;28;20076;-61
2022/01/25 11:52:17;;;;;;;76.22;43.90;;;5.20;99.90;;;;;;5019492;28;20053;-62
2022/01/25 11:54:43;;;;;;;73.28;42.55;;;5.20;99.90;;;;;;5030685;28;20041;-62
2022/01/25 11:57:13;;;;;;;79.90;46.08;;;5.20;99.90;;;;;;5034506;28;20079;-62
2022/01/25 11:59:40;;;;;;;78.88;44.10;;;5.20;99.90;;;;;;5036949;28;20053;-61
2022/01/25 12:02:06;;;;;;;77.25;44.70;;;5.20;99.90;;;;;;5036581;28;20045;-61
2022/01/25 12:04:32;;;;;;;82.78;46.33;;;5.20;99.90;;;;;;5020107;28;20041;-64
2022/01/25 12:07:11;;;;;;;81.70;44.85;;;5.20;99.90;;;;;;5025402;28;20040;-64
2022/01/25 12:09:48;;;;;;;77.05;45.38;;;5.20;99.90;;;;;;5007849;28;20102;-64
2022/01/25 12:12:15;;;;;;;87.65;45.63;;;5.20;99.90;;;;;;5032994;28;20405;-61
2022/01/25 12:14:42;;;;;;;80.13;45.40;;;5.30;99.90;;;;;;5023954;28;20490;-61
2022/01/25 12:17:12;;;;;;;84.65;47.38;;;5.20;99.90;;;;;;5027055;28;20111;-61
2022/01/25 12:19:51;;;;;;;77.20;44.05;;;5.20;99.90;;;;;;5043600;28;20063;-62
2022/01/25 12:22:40;;;;;;;83.20;44.50;;;5.30;99.90;;;;;;5017301;28;20034;-61
2022/01/25 12:25:18;;;;;;;87.25;45.33;;;5.30;99.90;;;;;;5013097;28;20577;-61
2022/01/25 12:27:58;;;;;;;81.20;44.53;;;5.30;99.90;;;;;;5022274;28;20720;-61
2022/01/25 12:30:26;;;;;;;80.10;46.67;;;5.30;99.90;;;;;;5021979;28;20408;-61
2022/01/25 12:33:02;;;;;;;85.78;45.33;;;5.20;99.90;;;;;;5021392;28;20202;-63
2022/01/25 12:35:44;;;;;;;80.60;46.78;;;5.30;99.90;;;;;;5025999;28;20038;-63
2022/01/25 12:38:19;;;;;;;82.32;47.00;;;5.30;99.90;;;;;;5023695;28;20084;-63
2022/01/25 12:40:47;;;;;;;87.38;47.08;;;5.30;99.90;;;;;;5017571;28;20053;-63
2022/01/25 12:43:20;;;;;;;91.90;44.58;;;5.30;99.90;;;;;;5016168;28;20080;-63
2022/01/25 12:45:50;;;;;;;77.90;44.40;;;5.30;99.90;;;;;;5011099;28;20069;-63
2022/01/25 12:48:20;;;;;;;84.35;45.05;;;5.30;99.90;;;;;;5016312;28;20060;-63
2022/01/25 12:50:50;;;;;;;81.63;44.47;;;5.30;99.90;;;;;;5029979;28;20045;-63
2022/01/25 12:53:23;;;;;;;87.78;46.45;;;5.20;99.90;;;;;;5026146;28;20052;-63
2022/01/25 12:55:53;;;;;;;81.47;45.45;;;5.30;99.90;;;;;;5016935;28;20497;-63
2022/01/25 12:58:21;;;;;;;78.35;43.75;;;5.30;99.90;;;;;;5013502;28;20064;-63
2022/01/25 13:00:49;;;;;;;79.97;45.05;;;5.30;99.90;;;;;;5014083;28;20478;-63
2022/01/25 13:03:23;;;;;;;80.53;46.42;;;5.30;99.90;;;;;;5025969;28;20385;-63
2022/01/25 13:05:56;;;;;;;77.97;44.42;;;5.30;99.90;;;;;;5012445;28;20045;-63
2022/01/25 13:08:28;;;;;;;79.40;45.50;;;5.20;99.90;;;;;;5023924;28;20124;-63
2022/01/25 13:11:46;;;;;;;89.95;47.35;;;5.20;99.90;;;;;;5013374;28;20547;-63
2022/01/25 13:16:42;;;;;;;77.07;44.35;;;5.20;99.90;;;;;;5021377;28;20508;-63
2022/01/25 13:19:09;;;;;;;76.32;44.70;;;5.20;99.90;;;;;;5017272;28;20057;-63
2022/01/25 13:21:53;;;;;;;76.45;43.92;;;5.20;99.90;;;;;;5017509;28;20486;-62
2022/01/25 13:24:21;;;;;;;81.22;44.22;;;5.20;99.90;;;;;;5024431;28;20129;-63
2022/01/25 13:27:10;;;;;;;84.35;45.70;;;5.30;99.90;;;;;;5017212;28;20052;-63
2022/01/25 13:32:38;;;;;;;81.68;45.25;;;5.20;99.90;;;;;;5014265;28;20054;-62
2022/01/25 13:35:16;;;;;;;79.45;44.17;;;5.20;99.90;;;;;;5007765;28;20046;-62
2022/01/25 13:37:44;;;;;;;77.05;45.33;;;5.30;99.90;;;;;;5012490;28;20057;-62
2022/01/25 13:40:13;;;;;;;80.47;43.67;;;5.30;99.90;;;;;;5023419;28;20038;-62
2022/01/25 13:45:44;;;;;;;79.65;45.80;;;5.30;99.90;;;;;;5011704;28;20128;-61
2022/01/25 13:48:14;;;;;;;76.53;44.70;;;5.20;99.90;;;;;;5025250;28;20065;-61
2022/01/25 13:50:41;;;;;;;82.03;45.50;;;5.20;99.90;;;;;;5021895;28;20128;-62
2022/01/25 13:53:08;;;;;;;78.18;44.65;;;5.20;99.90;;;;;;5014809;28;20073;-62
2022/01/25 13:55:35;;;;;;;88.85;46.10;;;5.20;99.90;;;;;;5014983;28;20041;-63
2022/01/25 13:58:02;;;;;;;79.22;46.00;;;5.20;99.90;;;;;;5016003;28;20041;-63
2022/01/25 14:00:28;;;;;;;79.55;46.28;;;5.20;99.90;;;;;;5019951;28;20046;-63
2022/01/25 14:02:57;;;;;;;74.57;43.45;;;5.20;99.90;;;;;;5013686;28;20133;-63
2022/01/25 14:05:24;;;;;;;92.43;45.85;;;5.20;99.90;;;;;;5008620;28;20124;-63
2022/01/25 14:07:52;;;;;;;86.40;48.25;;;5.20;99.90;;;;;;5007875;28;20367;-63
2022/01/25 14:10:22;;;;;;;82.45;47.13;;;5.20;99.90;;;;;;5014460;28;20042;-63
2022/01/25 14:23:52;;;;;;;86.30;47.60;;;5.10;99.90;;;;;;5013557;28;20053;-63
2022/01/25 14:26:19;;;;;;;88.47;45.67;;;5.10;99.90;;;;;;5011421;28;20446;-63
2022/01/25 14:28:53;;;;;;;91.80;47.63;;;5.10;99.90;;;;;;5009017;28;20497;-63
2022/01/25 14:31:25;;;;;;;81.82;45.75;;;5.00;99.90;;;;;;5022416;28;20129;-63
2022/01/25 14:33:54;;;;;;;89.25;47.60;;;5.00;99.90;;;;;;5006822;28;20509;-63